createdAt,value
2017-01-09T00:00:15.657Z,0
2017-01-09T00:02:29.133Z,0
2017-01-09T00:04:41.597Z,0
2017-01-09T00:06:49.001Z,0
2017-01-09T00:09:01.309Z,0
2017-01-09T00:11:13.552Z,0
2017-01-09T00:13:25.875Z,0
2017-01-09T00:15:38.286Z,0
2017-01-09T00:17:50.701Z,0
2017-01-09T00:20:04.642Z,0
2017-01-09T00:22:12.196Z,0
2017-01-09T00:24:24.591Z,0
2017-01-09T00:26:31.933Z,0
2017-01-09T00:28:44.264Z,0
2017-01-09T00:30:51.503Z,0
2017-01-09T00:33:03.835Z,0
2017-01-09T00:35:16.161Z,0
2017-01-09T00:37:29.449Z,0
2017-01-09T00:39:41.718Z,0
2017-01-09T00:41:54.003Z,0
2017-01-09T00:44:06.395Z,0
2017-01-09T00:46:18.942Z,0
2017-01-09T00:48:32.198Z,0
2017-01-09T00:50:44.666Z,0
2017-01-09T00:52:56.968Z,0
2017-01-09T00:55:10.824Z,0
2017-01-09T00:57:24.102Z,0
2017-01-09T00:59:36.511Z,0
2017-01-09T01:01:52.701Z,0
2017-01-09T01:04:05.118Z,0
2017-01-09T01:06:17.501Z,0
2017-01-09T01:08:29.810Z,0
2017-01-09T01:10:42.181Z,0
2017-01-09T01:12:57.648Z,0
2017-01-09T01:15:10.135Z,0
2017-01-09T01:17:22.609Z,0
2017-01-09T01:19:36.017Z,0
2017-01-09T01:21:48.481Z,0
2017-01-09T01:24:00.792Z,0
2017-01-09T01:26:13.170Z,0
2017-01-09T01:28:27.006Z,0
2017-01-09T01:30:34.802Z,0
2017-01-09T01:32:47.109Z,0
2017-01-09T01:34:59.362Z,0
2017-01-09T01:37:12.765Z,0
2017-01-09T01:39:25.078Z,0
2017-01-09T01:41:33.471Z,0
2017-01-09T01:43:46.067Z,0
2017-01-09T01:45:53.514Z,0
2017-01-09T01:48:05.809Z,0
2017-01-09T01:50:13.449Z,0
2017-01-09T01:52:25.840Z,0
2017-01-09T01:54:38.316Z,0
2017-01-09T01:56:50.828Z,0
2017-01-09T01:59:04.352Z,0
2017-01-09T02:01:17.362Z,0
2017-01-09T02:03:30.282Z,0
2017-01-09T02:05:42.593Z,0
2017-01-09T02:07:55.021Z,0
2017-01-09T02:10:07.483Z,0
2017-01-09T02:12:19.701Z,0
2017-01-09T02:14:31.928Z,0
2017-01-09T02:16:46.275Z,0
2017-01-09T02:18:58.836Z,0
2017-01-09T02:21:06.370Z,0
2017-01-09T02:23:18.626Z,0
2017-01-09T02:25:31.966Z,0
2017-01-09T02:27:45.511Z,0
2017-01-09T02:29:57.785Z,0
2017-01-09T02:32:09.122Z,0
2017-01-09T02:34:21.435Z,0
2017-01-09T02:36:24.050Z,0
2017-01-09T02:38:36.403Z,0
2017-01-09T02:40:49.825Z,0
2017-01-09T02:42:57.495Z,0
2017-01-09T02:45:11.986Z,0
2017-01-09T02:47:24.356Z,0
2017-01-09T02:49:36.882Z,0
2017-01-09T02:51:50.259Z,0
2017-01-09T02:54:03.703Z,0
2017-01-09T02:56:17.910Z,0
2017-01-09T02:58:30.143Z,0
2017-01-09T03:00:43.588Z,0
2017-01-09T03:02:50.870Z,0
2017-01-09T03:04:58.050Z,0
2017-01-09T03:07:10.262Z,0
2017-01-09T03:09:22.720Z,0
2017-01-09T03:11:36.992Z,0
2017-01-09T03:13:50.579Z,0
2017-01-09T03:16:02.948Z,0
2017-01-09T03:18:15.279Z,0
2017-01-09T03:20:32.947Z,0
2017-01-09T03:22:47.001Z,0
2017-01-09T03:25:01.944Z,0
2017-01-09T03:27:14.939Z,0
2017-01-09T03:29:29.032Z,0
2017-01-09T03:31:42.428Z,0
2017-01-09T03:33:54.717Z,0
2017-01-09T03:36:07.153Z,0
2017-01-09T03:38:19.424Z,0
2017-01-09T03:40:34.735Z,0
2017-01-09T03:42:47.083Z,0
2017-01-09T03:44:54.495Z,0
2017-01-09T03:47:07.468Z,0
2017-01-09T03:49:19.831Z,0
2017-01-09T03:51:27.279Z,0
2017-01-09T03:53:39.493Z,0
2017-01-09T03:55:46.763Z,0
2017-01-09T03:57:58.908Z,0
2017-01-09T04:00:11.130Z,0
2017-01-09T04:02:23.345Z,0
2017-01-09T04:04:35.642Z,0
2017-01-09T04:06:48.651Z,0
2017-01-09T04:08:56.037Z,0
2017-01-09T04:11:08.204Z,0
2017-01-09T04:13:20.814Z,0
2017-01-09T04:15:32.989Z,0
2017-01-09T04:17:45.362Z,0
2017-01-09T04:19:58.513Z,0
2017-01-09T04:22:11.488Z,0
2017-01-09T04:24:23.779Z,0
2017-01-09T04:26:36.026Z,0
2017-01-09T04:28:48.470Z,0
2017-01-09T04:31:00.707Z,0
2017-01-09T04:33:13.017Z,0
2017-01-09T04:35:26.298Z,0
2017-01-09T04:37:33.567Z,0
2017-01-09T04:39:45.859Z,0
2017-01-09T04:41:58.092Z,0
2017-01-09T04:44:10.377Z,0
2017-01-09T04:46:23.161Z,0
2017-01-09T04:48:35.465Z,0
2017-01-09T04:50:48.384Z,0
2017-01-09T04:53:00.703Z,0
2017-01-09T04:55:08.277Z,0
2017-01-09T04:57:20.657Z,0
2017-01-09T04:59:32.973Z,0
2017-01-09T05:01:46.202Z,0
2017-01-09T05:03:58.558Z,0
2017-01-09T05:06:10.914Z,0
2017-01-09T05:08:23.337Z,0
2017-01-09T05:10:30.556Z,0
2017-01-09T05:12:37.977Z,0
2017-01-09T05:14:50.307Z,0
2017-01-09T05:17:02.538Z,0
2017-01-09T05:19:14.943Z,0
2017-01-09T05:21:27.255Z,0
2017-01-09T05:23:34.554Z,0
2017-01-09T05:25:46.821Z,0
2017-01-09T05:27:59.003Z,0
2017-01-09T05:30:11.579Z,0
2017-01-09T05:32:18.892Z,0
2017-01-09T05:34:32.428Z,0
2017-01-09T05:36:44.601Z,0
2017-01-09T05:38:56.847Z,0
2017-01-09T05:41:09.020Z,0
2017-01-09T05:43:21.327Z,0
2017-01-09T05:45:33.729Z,0
2017-01-09T05:47:46.058Z,0
2017-01-09T05:49:58.722Z,0
2017-01-09T05:52:06.041Z,0
2017-01-09T05:54:13.429Z,0
2017-01-09T05:56:25.792Z,0
2017-01-09T05:58:38.038Z,0
2017-01-09T06:00:50.296Z,0
2017-01-09T06:03:02.500Z,0
2017-01-09T06:05:14.926Z,0
2017-01-09T06:07:27.448Z,0
2017-01-09T06:09:39.758Z,0
2017-01-09T06:11:51.980Z,0
2017-01-09T06:14:04.368Z,0
2017-01-09T06:16:16.631Z,0
2017-01-09T06:18:28.822Z,0
2017-01-09T06:20:36.144Z,0
2017-01-09T06:22:48.544Z,0
2017-01-09T06:25:00.855Z,0
2017-01-09T06:27:13.426Z,0
2017-01-09T06:29:25.723Z,0
2017-01-09T06:31:37.903Z,0
2017-01-09T06:33:50.128Z,0
2017-01-09T06:35:57.454Z,0
2017-01-09T06:38:04.779Z,0
2017-01-09T06:40:17.479Z,4
2017-01-09T06:42:30.820Z,0
2017-01-09T06:44:43.154Z,0
2017-01-09T06:46:50.383Z,4
2017-01-09T06:49:02.786Z,8
2017-01-09T06:51:15.192Z,8
2017-01-09T06:53:27.342Z,12
2017-01-09T06:55:39.630Z,12
2017-01-09T06:57:51.918Z,16
2017-01-09T07:00:04.362Z,20
2017-01-09T07:02:16.710Z,24
2017-01-09T07:04:28.914Z,32
2017-01-09T07:06:36.319Z,36
2017-01-09T07:08:48.578Z,44
2017-01-09T07:11:01.080Z,48
2017-01-09T07:13:14.862Z,52
2017-01-09T07:15:27.048Z,64
2017-01-09T07:17:39.807Z,72
2017-01-09T07:19:52.371Z,80
2017-01-09T07:21:59.544Z,92
2017-01-09T07:24:12.122Z,104
2017-01-09T07:26:24.729Z,116
2017-01-09T07:28:37.346Z,128
2017-01-09T07:30:49.881Z,156
2017-01-09T07:33:02.595Z,156
2017-01-09T07:35:15.370Z,148
2017-01-09T07:37:27.760Z,152
2017-01-09T07:39:41.013Z,200
2017-01-09T07:41:53.735Z,228
2017-01-09T07:44:06.405Z,228
2017-01-09T07:46:18.934Z,248
2017-01-09T07:48:31.487Z,288
2017-01-09T07:50:47.026Z,312
2017-01-09T07:52:55.447Z,332
2017-01-09T07:55:08.185Z,372
2017-01-09T07:57:15.675Z,400
2017-01-09T07:59:27.923Z,424
2017-01-09T08:01:40.364Z,452
2017-01-09T08:03:52.624Z,460
2017-01-09T08:06:05.086Z,464
2017-01-09T08:08:13.204Z,476
2017-01-09T08:10:25.479Z,496
2017-01-09T08:12:37.774Z,2608
2017-01-09T08:14:50.190Z,2760
2017-01-09T08:17:03.103Z,2928
2017-01-09T08:19:10.437Z,3180
2017-01-09T08:21:22.678Z,3344
2017-01-09T08:23:34.960Z,3348
2017-01-09T08:25:47.222Z,3472
2017-01-09T08:27:59.703Z,3784
2017-01-09T08:30:12.609Z,3744
2017-01-09T08:32:24.794Z,4092
2017-01-09T08:34:37.134Z,4052
2017-01-09T08:36:44.408Z,4264
2017-01-09T08:38:56.920Z,4572
2017-01-09T08:41:09.185Z,4408
2017-01-09T08:43:21.382Z,4296
2017-01-09T08:45:34.669Z,4548
2017-01-09T08:47:47.064Z,4800
2017-01-09T08:49:59.315Z,4776
2017-01-09T08:52:11.764Z,4640
2017-01-09T08:54:19.107Z,4632
2017-01-09T08:56:31.539Z,4684
2017-01-09T08:58:43.736Z,4732
2017-01-09T09:00:56.075Z,4912
2017-01-09T09:03:03.616Z,4816
2017-01-09T09:05:11.025Z,5008
2017-01-09T09:07:23.365Z,5540
2017-01-09T09:09:30.591Z,5660
2017-01-09T09:11:42.796Z,5536
2017-01-09T09:13:57.692Z,5740
2017-01-09T09:16:09.994Z,5588
2017-01-09T09:18:31.807Z,5408
2017-01-09T09:20:48.513Z,5724
2017-01-09T09:23:09.746Z,5760
2017-01-09T09:25:26.365Z,5920
2017-01-09T09:27:38.618Z,5924
2017-01-09T09:29:50.869Z,6232
2017-01-09T09:32:03.185Z,6276
2017-01-09T09:34:10.398Z,6240
2017-01-09T09:36:17.635Z,6700
2017-01-09T09:38:30.356Z,6956
2017-01-09T09:40:42.811Z,7052
2017-01-09T09:42:55.073Z,7140
2017-01-09T09:45:06.094Z,7300
2017-01-09T09:47:23.643Z,7644
2017-01-09T09:49:52.861Z,7668
2017-01-09T09:52:11.872Z,7812
2017-01-09T09:54:26.135Z,7812
2017-01-09T09:56:38.478Z,7456
2017-01-09T09:58:45.791Z,7460
2017-01-09T10:00:58.117Z,7588
2017-01-09T10:03:10.289Z,7856
2017-01-09T10:05:22.830Z,8060
2017-01-09T10:07:35.293Z,8160
2017-01-09T10:09:47.501Z,8228
2017-01-09T10:11:59.859Z,8440
2017-01-09T10:14:12.496Z,8536
2017-01-09T10:16:24.796Z,8872
2017-01-09T10:18:37.193Z,9052
2017-01-09T10:20:50.461Z,9088
2017-01-09T10:23:02.969Z,9092
2017-01-09T10:25:15.215Z,8956
2017-01-09T10:27:27.558Z,9028
2017-01-09T10:29:35.462Z,9028
2017-01-09T10:31:47.673Z,8668
2017-01-09T10:34:00.015Z,8168
2017-01-09T10:36:12.147Z,8420
2017-01-09T10:38:24.609Z,8936
2017-01-09T10:40:36.955Z,8980
2017-01-09T10:42:44.291Z,9424
2017-01-09T10:44:56.598Z,9232
2017-01-09T10:47:03.930Z,9028
2017-01-09T10:49:16.468Z,9160
2017-01-09T10:51:29.048Z,9160
2017-01-09T10:53:43.871Z,9144
2017-01-09T10:55:56.464Z,9136
2017-01-09T10:58:08.901Z,9132
2017-01-09T11:00:21.279Z,9068
2017-01-09T11:02:33.715Z,8940
2017-01-09T11:04:46.896Z,8920
2017-01-09T11:06:59.167Z,8876
2017-01-09T11:09:11.423Z,8732
2017-01-09T11:11:23.709Z,8684
2017-01-09T11:13:36.175Z,8332
2017-01-09T11:15:48.377Z,8368
2017-01-09T11:18:00.594Z,8396
2017-01-09T11:20:12.740Z,8288
2017-01-09T11:22:25.101Z,8308
2017-01-09T11:24:37.454Z,8328
2017-01-09T11:26:44.647Z,8388
2017-01-09T11:28:52.248Z,8472
2017-01-09T11:31:04.594Z,8460
2017-01-09T11:33:16.854Z,8384
2017-01-09T11:35:29.277Z,8304
2017-01-09T11:37:41.546Z,8152
2017-01-09T11:39:53.891Z,8196
2017-01-09T11:42:01.235Z,8088
2017-01-09T11:44:13.506Z,8020
2017-01-09T11:46:25.763Z,7968
2017-01-09T11:48:38.112Z,7968
2017-01-09T11:50:50.541Z,8008
2017-01-09T11:53:02.901Z,7992
2017-01-09T11:55:15.272Z,8060
2017-01-09T11:57:22.630Z,8128
2017-01-09T11:59:35.081Z,8192
2017-01-09T12:01:47.365Z,8276
2017-01-09T12:03:54.677Z,8384
2017-01-09T12:06:03.572Z,8428
2017-01-09T12:08:16.274Z,8552
2017-01-09T12:10:28.527Z,8604
2017-01-09T12:12:40.757Z,8516
2017-01-09T12:14:53.003Z,8528
2017-01-09T12:17:05.255Z,8512
2017-01-09T12:19:17.792Z,8404
2017-01-09T12:21:25.221Z,8220
2017-01-09T12:23:37.756Z,8024
2017-01-09T12:25:45.152Z,7900
2017-01-09T12:27:57.514Z,7804
2017-01-09T12:30:09.894Z,7928
2017-01-09T12:32:18.849Z,7848
2017-01-09T12:34:31.257Z,7580
2017-01-09T12:36:38.933Z,7436
2017-01-09T12:38:51.681Z,7388
2017-01-09T12:41:04.035Z,7328
2017-01-09T12:43:11.770Z,7328
2017-01-09T12:45:26.320Z,7196
2017-01-09T12:47:40.168Z,7060
2017-01-09T12:49:54.824Z,6996
2017-01-09T12:52:15.487Z,6844
2017-01-09T12:54:23.059Z,6840
2017-01-09T12:56:35.600Z,6836
2017-01-09T12:58:49.261Z,6700
2017-01-09T13:01:01.771Z,6640
2017-01-09T13:03:14.546Z,6444
2017-01-09T13:05:26.980Z,6128
2017-01-09T13:07:39.491Z,5892
2017-01-09T13:09:51.845Z,5756
2017-01-09T13:12:04.095Z,5504
2017-01-09T13:14:11.767Z,5228
2017-01-09T13:16:24.226Z,5032
2017-01-09T13:18:31.881Z,4992
2017-01-09T13:20:44.475Z,4956
2017-01-09T13:22:46.882Z,4928
2017-01-09T13:24:59.328Z,4860
2017-01-09T13:27:11.998Z,4700
2017-01-09T13:29:19.517Z,4528
2017-01-09T13:31:32.182Z,4344
2017-01-09T13:33:44.411Z,4172
2017-01-09T13:35:57.002Z,3984
2017-01-09T13:38:09.372Z,3844
2017-01-09T13:40:21.884Z,3628
2017-01-09T13:42:34.386Z,3456
2017-01-09T13:44:46.822Z,3396
2017-01-09T13:46:59.791Z,3240
2017-01-09T13:49:12.109Z,3092
2017-01-09T13:51:24.548Z,2944
2017-01-09T13:53:32.083Z,2840
2017-01-09T13:55:44.674Z,2764
2017-01-09T13:57:57.464Z,2704
2017-01-09T14:00:10.075Z,2652
2017-01-09T14:02:22.659Z,2668
2017-01-09T14:04:35.029Z,2640
2017-01-09T14:06:42.472Z,2608
2017-01-09T14:08:55.720Z,2500
2017-01-09T14:11:08.063Z,2408
2017-01-09T14:13:20.660Z,2336
2017-01-09T14:15:32.989Z,2236
2017-01-09T14:17:45.692Z,2140
2017-01-09T14:19:57.993Z,2032
2017-01-09T14:22:10.507Z,1920
2017-01-09T14:24:23.249Z,1800
2017-01-09T14:26:35.741Z,1712
2017-01-09T14:28:48.132Z,1656
2017-01-09T14:31:01.657Z,1604
2017-01-09T14:33:14.464Z,1532
2017-01-09T14:35:27.257Z,1524
2017-01-09T14:37:40.596Z,1476
2017-01-09T14:39:52.952Z,1412
2017-01-09T14:42:39.536Z,1304
2017-01-09T14:45:29.735Z,1216
2017-01-09T14:47:42.588Z,1140
2017-01-09T14:49:54.966Z,1100
2017-01-09T14:52:07.780Z,1072
2017-01-09T14:54:20.230Z,1024
2017-01-09T14:56:24.062Z,948
2017-01-09T14:58:36.557Z,884
2017-01-09T15:00:49.032Z,840
2017-01-09T15:03:01.395Z,804
2017-01-09T15:05:14.283Z,748
2017-01-09T15:07:26.830Z,676
2017-01-09T15:09:39.411Z,612
2017-01-09T15:11:52.065Z,564
2017-01-09T15:13:59.766Z,528
2017-01-09T15:16:12.203Z,496
2017-01-09T15:18:24.788Z,464
2017-01-09T15:20:34.118Z,420
2017-01-09T15:22:46.701Z,380
2017-01-09T15:24:54.384Z,344
2017-01-09T15:27:08.325Z,308
2017-01-09T15:29:21.113Z,272
2017-01-09T15:31:34.514Z,236
2017-01-09T15:33:42.153Z,212
2017-01-09T15:35:54.486Z,184
2017-01-09T15:38:07.005Z,156
2017-01-09T15:40:19.471Z,136
2017-01-09T15:42:27.039Z,112
2017-01-09T15:44:39.587Z,92
2017-01-09T15:46:52.170Z,76
2017-01-09T15:49:05.010Z,56
2017-01-09T15:51:13.501Z,48
2017-01-09T15:53:26.010Z,32
2017-01-09T15:55:38.385Z,24
2017-01-09T15:57:50.816Z,16
2017-01-09T16:00:03.433Z,12
2017-01-09T16:02:16.238Z,12
2017-01-09T16:04:28.734Z,4
2017-01-09T16:06:41.293Z,4
2017-01-09T16:08:53.618Z,0
2017-01-09T16:11:01.141Z,0
2017-01-09T16:13:13.564Z,4
2017-01-09T16:15:24.967Z,0
2017-01-09T16:17:39.481Z,0
2017-01-09T16:19:53.319Z,0
2017-01-09T16:22:03.912Z,0
2017-01-09T16:24:16.751Z,0
2017-01-09T16:26:34.153Z,0
2017-01-09T16:28:47.225Z,0
2017-01-09T16:31:00.827Z,0
2017-01-09T16:33:13.747Z,0
2017-01-09T16:35:26.536Z,0
2017-01-09T16:37:43.777Z,0
2017-01-09T16:39:51.497Z,0
2017-01-09T16:42:06.601Z,0
2017-01-09T16:44:22.034Z,0
2017-01-09T16:46:37.005Z,0
2017-01-09T16:48:49.381Z,0
2017-01-09T16:51:01.957Z,0
2017-01-09T16:53:14.533Z,0
2017-01-09T16:55:27.103Z,0
2017-01-09T16:57:34.671Z,0
2017-01-09T16:59:58.877Z,0
2017-01-09T17:02:13.374Z,0
2017-01-09T17:04:55.382Z,0
2017-01-09T17:07:07.780Z,0
2017-01-09T17:09:21.425Z,0
2017-01-09T17:11:33.974Z,0
2017-01-09T17:13:46.513Z,0
2017-01-09T17:15:59.011Z,0
2017-01-09T17:18:11.636Z,0
2017-01-09T17:20:23.969Z,0
2017-01-09T17:22:31.459Z,0
2017-01-09T17:24:43.980Z,0
2017-01-09T17:26:56.713Z,0
2017-01-09T17:29:09.225Z,0
2017-01-09T17:31:21.793Z,0
2017-01-09T17:33:34.039Z,0
2017-01-09T17:35:46.462Z,0
2017-01-09T17:37:55.396Z,0
2017-01-09T17:40:08.855Z,0
2017-01-09T17:42:22.537Z,0
2017-01-09T17:44:35.810Z,0
2017-01-09T17:46:48.892Z,0
2017-01-09T17:49:02.596Z,0
2017-01-09T17:51:16.323Z,0
2017-01-09T17:53:29.408Z,0
2017-01-09T17:55:38.402Z,0
2017-01-09T17:57:48.038Z,0
2017-01-09T18:00:02.894Z,0
2017-01-09T18:02:16.104Z,0
2017-01-09T18:04:29.256Z,0
2017-01-09T18:06:46.178Z,0
2017-01-09T18:09:02.099Z,0
2017-01-09T18:11:10.492Z,0
2017-01-09T18:13:21.602Z,0
2017-01-09T18:15:32.108Z,0
2017-01-09T18:17:46.108Z,0
2017-01-09T18:19:58.570Z,0
2017-01-09T18:22:11.275Z,0
2017-01-09T18:24:23.640Z,0
2017-01-09T18:26:39.107Z,0
2017-01-09T18:28:53.271Z,0
2017-01-09T18:31:07.262Z,0
2017-01-09T18:33:22.093Z,0
2017-01-09T18:35:35.463Z,0
2017-01-09T18:37:49.209Z,0
2017-01-09T18:40:04.352Z,0
2017-01-09T18:42:18.803Z,0
2017-01-09T18:44:32.402Z,0
2017-01-09T18:46:47.821Z,0
2017-01-09T18:49:02.875Z,0
2017-01-09T18:51:16.662Z,0
2017-01-09T18:53:32.596Z,0
2017-01-09T18:55:49.777Z,0
2017-01-09T18:58:02.599Z,0
2017-01-09T19:00:17.429Z,0
2017-01-09T19:02:39.011Z,0
2017-01-09T19:04:55.419Z,0
2017-01-09T19:07:39.929Z,0
2017-01-09T19:09:53.977Z,0
2017-01-09T19:12:09.467Z,0
2017-01-09T19:14:20.350Z,0
2017-01-09T19:16:36.659Z,0
2017-01-09T19:18:52.757Z,0
2017-01-09T19:21:07.868Z,0
2017-01-09T19:23:25.333Z,0
2017-01-09T19:25:42.733Z,0
2017-01-09T19:28:01.158Z,0
2017-01-09T19:30:17.767Z,0
2017-01-09T19:32:29.802Z,0
2017-01-09T19:34:47.662Z,0
2017-01-09T19:37:05.099Z,0
2017-01-09T19:39:21.502Z,0
2017-01-09T19:41:36.007Z,0
2017-01-09T19:43:45.962Z,0
2017-01-09T19:46:02.879Z,0
2017-01-09T19:48:18.056Z,0
2017-01-09T19:50:35.554Z,0
2017-01-09T19:52:52.731Z,0
2017-01-09T19:55:10.743Z,0
2017-01-09T19:57:29.459Z,0
2017-01-09T19:59:45.454Z,0
2017-01-09T20:01:59.328Z,0
2017-01-09T20:04:23.798Z,0
2017-01-09T20:06:45.067Z,0
2017-01-09T20:09:07.471Z,0
2017-01-09T20:11:33.051Z,0
2017-01-09T20:13:58.190Z,0
2017-01-09T20:16:44.716Z,0
2017-01-09T20:19:41.086Z,0
2017-01-09T20:22:36.940Z,0
2017-01-09T20:25:09.452Z,0
2017-01-09T20:27:44.836Z,0
2017-01-09T20:30:11.527Z,0
2017-01-09T20:32:33.768Z,0
2017-01-09T20:35:14.919Z,0
2017-01-09T20:37:37.668Z,0
2017-01-09T20:40:11.295Z,0
2017-01-09T20:42:38.741Z,0
2017-01-09T20:45:13.553Z,0
2017-01-09T20:47:42.181Z,0
2017-01-09T20:50:19.746Z,0
2017-01-09T20:52:59.356Z,0
2017-01-09T20:55:13.510Z,0
2017-01-09T20:58:20.810Z,0
2017-01-09T21:01:15.331Z,0
2017-01-09T21:03:53.952Z,0
2017-01-09T21:06:16.328Z,0
2017-01-09T21:08:38.636Z,0
2017-01-09T21:11:09.762Z,0
2017-01-09T21:13:40.558Z,0
2017-01-09T21:15:57.380Z,0
2017-01-09T21:18:06.683Z,0
2017-01-09T21:20:36.418Z,0
2017-01-09T21:23:04.994Z,0
2017-01-09T21:25:32.821Z,0
2017-01-09T21:28:01.847Z,0
